createdAt,value
2023-04-19T00:01:52.348Z,5.70
2023-04-19T00:04:21.622Z,5.60
2023-04-19T00:06:52.186Z,4.50
2023-04-19T00:09:22.540Z,6.10
2023-04-19T00:11:52.853Z,5.60
2023-04-19T00:14:23.742Z,6.50
2023-04-19T00:16:53.516Z,7.00
2023-04-19T00:19:23.492Z,8.00
2023-04-19T00:21:52.659Z,5.10
2023-04-19T00:24:20.866Z,14.10
2023-04-19T00:26:49.032Z,5.30
2023-04-19T00:29:18.532Z,7.80
2023-04-19T00:31:47.327Z,7.10
2023-04-19T00:34:15.899Z,5.80
2023-04-19T00:36:44.427Z,6.20
2023-04-19T00:39:15.668Z,5.00
2023-04-19T00:41:43.858Z,5.50
2023-04-19T00:44:14.762Z,5.40
2023-04-19T00:46:46.734Z,5.90
2023-04-19T00:49:18.549Z,7.40
2023-04-19T00:51:47.782Z,5.80
2023-04-19T00:54:17.714Z,6.30
2023-04-19T00:56:48.630Z,6.30
2023-04-19T00:59:18.699Z,6.10
2023-04-19T01:01:52.076Z,7.60
2023-04-19T01:04:22.769Z,5.80
2023-04-19T01:06:54.291Z,6.80
2023-04-19T01:09:24.797Z,7.80
2023-04-19T01:11:54.353Z,6.60
2023-04-19T01:14:24.588Z,6.30
2023-04-19T01:16:55.069Z,5.50
2023-04-19T01:19:23.388Z,6.80
2023-04-19T01:21:53.016Z,6.10
2023-04-19T01:24:21.229Z,7.90
2023-04-19T01:26:51.561Z,6.00
2023-04-19T01:29:22.447Z,8.60
2023-04-19T01:31:54.190Z,7.20
2023-04-19T01:36:52.563Z,6.40
2023-04-19T01:39:22.403Z,6.40
2023-04-19T01:41:50.782Z,5.50
2023-04-19T01:44:19.614Z,5.90
2023-04-19T01:46:50.248Z,7.00
2023-04-19T01:49:20.557Z,6.50
2023-04-19T01:51:50.359Z,8.60
2023-04-19T01:54:19.022Z,6.80
2023-04-19T01:56:50.441Z,7.90
2023-04-19T01:59:18.757Z,6.90
2023-04-19T02:01:47.994Z,6.00
2023-04-19T02:04:16.636Z,6.30
2023-04-19T02:06:45.478Z,5.00
2023-04-19T02:09:14.912Z,7.70
2023-04-19T02:11:44.512Z,7.60
2023-04-19T02:14:18.211Z,6.10
2023-04-19T02:16:47.912Z,6.50
2023-04-19T02:19:16.400Z,8.40
2023-04-19T02:21:44.757Z,8.70
2023-04-19T02:24:18.138Z,5.30
2023-04-19T02:26:46.373Z,7.60
2023-04-19T02:29:21.268Z,6.80
2023-04-19T02:31:50.532Z,6.30
2023-04-19T02:34:28.996Z,7.00
2023-04-19T02:36:58.394Z,6.60
2023-04-19T02:39:27.345Z,6.10
2023-04-19T02:41:56.177Z,6.20
2023-04-19T02:44:24.928Z,6.40
2023-04-19T02:46:53.354Z,5.50
2023-04-19T02:49:22.648Z,6.40
2023-04-19T02:51:55.511Z,7.00
2023-04-19T02:54:26.962Z,7.90
2023-04-19T02:56:55.298Z,6.70
2023-04-19T02:59:23.709Z,7.80
2023-04-19T03:01:52.030Z,6.90
2023-04-19T03:04:23.094Z,6.90
2023-04-19T03:06:52.410Z,7.40
2023-04-19T03:09:23.096Z,6.90
2023-04-19T03:11:54.117Z,5.80
2023-04-19T03:14:23.458Z,6.30
2023-04-19T03:16:56.810Z,7.30
2023-04-19T03:19:25.182Z,7.00
2023-04-19T03:21:54.714Z,7.20
2023-04-19T03:24:32.751Z,8.50
2023-04-19T03:27:09.789Z,7.80
2023-04-19T03:29:38.071Z,7.70
2023-04-19T03:32:12.763Z,6.40
2023-04-19T03:34:41.443Z,6.50
2023-04-19T03:37:10.846Z,5.90
2023-04-19T03:39:39.546Z,8.20
2023-04-19T03:42:09.309Z,7.10
2023-04-19T03:45:10.894Z,8.70
2023-04-19T03:47:42.488Z,7.70
2023-04-19T03:50:11.555Z,6.00
2023-04-19T03:52:40.584Z,7.10
2023-04-19T03:55:12.489Z,5.80
2023-04-19T03:57:41.761Z,6.80
2023-04-19T04:00:16.951Z,6.00
2023-04-19T04:02:48.027Z,10.20
2023-04-19T04:05:16.697Z,6.40
2023-04-19T04:07:46.207Z,6.20
2023-04-19T04:10:14.900Z,8.50
2023-04-19T04:12:44.510Z,5.90
2023-04-19T04:17:48.660Z,6.80
2023-04-19T04:20:17.681Z,7.20
2023-04-19T04:22:48.298Z,5.80
2023-04-19T04:25:19.162Z,6.70
2023-04-19T04:27:52.142Z,9.10
2023-04-19T04:30:21.947Z,7.90
2023-04-19T04:32:51.624Z,6.70
2023-04-19T04:35:21.090Z,7.30
2023-04-19T04:38:00.412Z,7.80
2023-04-19T04:40:29.549Z,6.80
2023-04-19T04:43:01.334Z,6.80
2023-04-19T04:45:29.993Z,8.80
2023-04-19T04:47:58.706Z,6.80
2023-04-19T04:50:28.053Z,7.20
2023-04-19T04:52:57.977Z,7.00
2023-04-19T04:55:31.280Z,6.80
2023-04-19T04:58:00.098Z,6.80
2023-04-19T05:00:43.532Z,8.70
2023-04-19T05:03:12.186Z,9.20
2023-04-19T05:05:49.431Z,7.20
2023-04-19T05:08:27.326Z,6.60
2023-04-19T05:10:59.301Z,7.10
2023-04-19T05:13:32.471Z,7.70
2023-04-19T05:16:01.168Z,6.80
2023-04-19T05:18:29.875Z,5.90
2023-04-19T05:20:58.382Z,6.10
2023-04-19T05:23:29.896Z,8.90
2023-04-19T05:25:59.082Z,6.10
2023-04-19T05:28:28.929Z,7.00
2023-04-19T05:31:06.568Z,7.20
2023-04-19T05:33:40.238Z,8.10
2023-04-19T05:36:12.516Z,8.50
2023-04-19T05:38:43.229Z,7.70
2023-04-19T05:41:12.480Z,8.20
2023-04-19T05:43:41.496Z,7.10
2023-04-19T05:46:10.701Z,7.40
2023-04-19T05:48:39.266Z,6.80
2023-04-19T05:51:35.795Z,7.00
2023-04-19T05:54:19.431Z,6.60
2023-04-19T05:59:20.736Z,8.90
2023-04-19T06:01:49.524Z,6.80
2023-04-19T06:04:18.638Z,7.20
2023-04-19T06:06:49.401Z,7.10
2023-04-19T06:09:23.397Z,7.50
2023-04-19T06:11:54.887Z,8.30
2023-04-19T06:14:25.291Z,7.40
2023-04-19T06:16:54.620Z,7.50
2023-04-19T06:19:24.167Z,6.40
2023-04-19T06:21:52.544Z,7.20
2023-04-19T06:24:20.926Z,8.70
2023-04-19T06:26:50.081Z,6.30
2023-04-19T06:29:27.829Z,8.00
2023-04-19T06:31:59.467Z,9.10
2023-04-19T06:34:27.875Z,11.40
2023-04-19T06:36:59.491Z,7.50
2023-04-19T06:39:28.718Z,7.20
2023-04-19T06:41:57.937Z,7.10
2023-04-19T06:44:28.665Z,6.70
2023-04-19T06:46:59.947Z,10.70
2023-04-19T06:49:32.386Z,10.10
2023-04-19T06:52:04.362Z,8.20
2023-04-19T06:54:33.745Z,8.80
2023-04-19T06:57:03.420Z,8.30
2023-04-19T06:59:33.836Z,8.70
2023-04-19T07:02:03.067Z,7.10
2023-04-19T07:04:41.375Z,9.10
2023-04-19T07:07:13.365Z,8.10
2023-04-19T07:09:42.008Z,8.60
2023-04-19T07:12:10.989Z,8.40
2023-04-19T07:14:39.922Z,8.40
2023-04-19T07:17:08.519Z,8.80
2023-04-19T07:19:37.648Z,5.60
2023-04-19T07:22:07.106Z,6.80
2023-04-19T07:24:36.193Z,7.70
2023-04-19T07:27:05.100Z,7.70
2023-04-19T07:29:37.353Z,7.60
2023-04-19T07:32:07.798Z,6.80
2023-04-19T07:34:43.990Z,11.10
2023-04-19T07:37:12.882Z,11.10
2023-04-19T07:39:43.873Z,7.70
2023-04-19T07:42:12.219Z,6.30
2023-04-19T07:44:40.589Z,8.20
2023-04-19T07:47:08.927Z,7.30
2023-04-19T07:49:41.268Z,9.70
2023-04-19T07:52:09.559Z,8.90
2023-04-19T07:54:39.505Z,11.70
2023-04-19T07:57:07.957Z,7.00
2023-04-19T07:59:42.570Z,8.10
2023-04-19T08:02:12.737Z,9.40
2023-04-19T08:07:59.065Z,9.70
2023-04-19T08:10:30.821Z,9.10
2023-04-19T08:13:06.231Z,7.00
2023-04-19T08:18:07.402Z,9.30
2023-04-19T08:20:37.005Z,8.10
2023-04-19T08:23:20.601Z,10.50
2023-04-19T08:25:51.576Z,7.50
2023-04-19T08:28:21.967Z,8.10
2023-04-19T08:30:50.683Z,6.90
2023-04-19T08:33:20.118Z,6.90
2023-04-19T08:35:50.837Z,8.80
2023-04-19T08:38:21.877Z,12.00
2023-04-19T08:40:52.438Z,8.70
2023-04-19T08:43:22.935Z,11.20
2023-04-19T08:45:52.728Z,8.60
2023-04-19T08:48:38.545Z,10.10
2023-04-19T08:51:10.452Z,10.50
2023-04-19T08:53:40.906Z,8.50
2023-04-19T08:56:21.161Z,14.70
2023-04-19T08:59:15.651Z,13.40
2023-04-19T09:01:48.071Z,9.50
2023-04-19T09:04:35.832Z,10.30
2023-04-19T09:07:09.325Z,7.60
2023-04-19T09:09:59.674Z,13.80
2023-04-19T09:12:36.131Z,12.50
2023-04-19T09:15:06.957Z,11.40
2023-04-19T09:17:41.269Z,11.00
2023-04-19T09:20:09.713Z,11.10
2023-04-19T09:22:38.103Z,11.60
2023-04-19T09:27:41.851Z,16.20
2023-04-19T09:30:17.629Z,14.80
2023-04-19T09:32:52.822Z,11.00
2023-04-19T09:35:22.066Z,17.40
2023-04-19T09:40:33.501Z,12.00
2023-04-19T09:43:33.056Z,11.80
2023-04-19T09:45:55.894Z,10.30
2023-04-19T09:48:32.956Z,11.30
2023-04-19T09:51:05.821Z,12.50
2023-04-19T09:53:37.036Z,12.60
2023-04-19T09:56:06.513Z,9.90
2023-04-19T09:58:46.856Z,14.00
2023-04-19T10:01:20.172Z,10.30
2023-04-19T10:03:49.793Z,12.20
2023-04-19T10:11:26.095Z,15.80
2023-04-19T10:13:57.693Z,15.80
2023-04-19T10:16:26.514Z,16.10
2023-04-19T10:18:54.874Z,15.70
2023-04-19T10:21:23.312Z,16.00
2023-04-19T10:23:51.656Z,19.80
2023-04-19T10:26:19.888Z,19.40
2023-04-19T10:28:48.456Z,17.90
2023-04-19T10:31:20.569Z,21.00
2023-04-19T10:33:53.106Z,16.80
2023-04-19T10:36:22.692Z,21.70
2023-04-19T10:38:56.016Z,15.80
2023-04-19T10:41:24.428Z,16.40
2023-04-19T10:43:56.799Z,23.60
2023-04-19T10:46:32.103Z,21.90
2023-04-19T10:49:03.080Z,16.90
2023-04-19T10:51:39.171Z,19.50
2023-04-19T10:54:11.354Z,22.50
2023-04-19T10:56:42.006Z,19.30
2023-04-19T10:59:24.854Z,16.30
2023-04-19T11:01:58.286Z,17.00
2023-04-19T11:04:33.018Z,19.60
2023-04-19T11:07:03.628Z,14.80
2023-04-19T11:09:42.206Z,18.20
2023-04-19T11:12:17.309Z,16.60
2023-04-19T11:14:49.473Z,14.20
2023-04-19T11:17:25.602Z,18.10
2023-04-19T11:20:07.228Z,13.60
2023-04-19T11:22:39.956Z,16.10
2023-04-19T11:25:19.505Z,15.40
2023-04-19T11:27:53.507Z,13.00
2023-04-19T11:30:29.803Z,19.40
2023-04-19T11:32:58.565Z,14.90
2023-04-19T11:35:28.732Z,19.70
2023-04-19T11:37:59.360Z,20.70
2023-04-19T11:40:27.665Z,17.80
2023-04-19T11:43:04.973Z,17.50
2023-04-19T11:45:39.579Z,18.70
2023-04-19T11:48:17.603Z,23.80
2023-04-19T11:50:50.298Z,20.40
2023-04-19T11:53:21.336Z,19.80
2023-04-19T11:55:54.006Z,15.20
2023-04-19T11:58:40.242Z,21.20
2023-04-19T12:01:11.189Z,21.70
2023-04-19T12:03:47.660Z,21.90
2023-04-19T12:06:29.898Z,20.40
2023-04-19T12:09:00.811Z,21.10
2023-04-19T12:11:50.883Z,23.50
2023-04-19T12:14:23.199Z,23.30
2023-04-19T12:19:42.597Z,22.20
2023-04-19T12:22:20.618Z,19.00
2023-04-19T12:24:53.827Z,21.40
2023-04-19T12:27:22.297Z,22.40
2023-04-19T12:29:50.714Z,25.00
2023-04-19T12:32:19.840Z,18.90
2023-04-19T12:34:49.255Z,25.90
2023-04-19T12:37:18.293Z,21.80
2023-04-19T12:39:46.633Z,26.90
2023-04-19T12:42:16.245Z,19.50
2023-04-19T12:44:44.660Z,25.50
2023-04-19T12:47:13.156Z,26.50
2023-04-19T12:49:42.465Z,23.30
2023-04-19T12:52:12.232Z,24.60
2023-04-19T12:54:42.311Z,18.20
2023-04-19T12:57:11.057Z,24.00
2023-04-19T12:59:42.018Z,17.60
2023-04-19T13:02:10.326Z,21.70
2023-04-19T13:04:38.754Z,19.40
2023-04-19T13:07:07.274Z,22.30
2023-04-19T13:09:41.444Z,20.90
2023-04-19T13:12:10.802Z,22.00
2023-04-19T13:14:39.083Z,27.50
2023-04-19T13:17:07.830Z,27.80
2023-04-19T13:19:38.744Z,24.10
2023-04-19T13:22:09.072Z,22.00
2023-04-19T13:24:38.881Z,19.50
2023-04-19T13:27:09.201Z,22.40
2023-04-19T13:29:37.906Z,20.80
2023-04-19T13:32:19.825Z,17.80
2023-04-19T13:34:48.572Z,24.60
2023-04-19T13:37:17.449Z,25.90
2023-04-19T13:39:46.979Z,15.50
2023-04-19T13:42:15.818Z,23.50
2023-04-19T13:44:45.220Z,20.90
2023-04-19T13:47:13.874Z,24.40
2023-04-19T13:49:46.014Z,28.50
2023-04-19T13:52:14.378Z,23.00
2023-04-19T13:54:43.408Z,18.90
2023-04-19T13:57:12.561Z,22.50
2023-04-19T13:59:41.146Z,22.20
2023-04-19T14:02:09.591Z,22.90
2023-04-19T14:04:38.110Z,19.00
2023-04-19T14:07:06.739Z,21.20
2023-04-19T14:09:35.169Z,19.30
2023-04-19T14:12:04.829Z,22.40
2023-04-19T14:14:33.752Z,20.60
2023-04-19T14:17:02.137Z,23.50
2023-04-19T14:19:31.001Z,22.80
2023-04-19T14:21:59.395Z,22.10
2023-04-19T14:24:27.880Z,25.70
2023-04-19T14:27:10.392Z,25.60
2023-04-19T14:29:40.136Z,22.30
2023-04-19T14:32:24.509Z,20.50
2023-04-19T14:34:56.338Z,18.00
2023-04-19T14:37:27.994Z,27.50
2023-04-19T14:39:56.373Z,18.60
2023-04-19T14:42:24.725Z,21.30
2023-04-19T14:44:55.914Z,18.90
2023-04-19T14:47:25.006Z,28.10
2023-04-19T14:50:01.038Z,18.40
2023-04-19T14:52:34.944Z,22.90
2023-04-19T14:55:13.984Z,21.20
2023-04-19T14:57:42.342Z,24.70
2023-04-19T15:00:15.604Z,21.50
2023-04-19T15:02:44.995Z,20.90
2023-04-19T15:05:17.560Z,19.10
2023-04-19T15:07:51.517Z,18.00
2023-04-19T15:10:21.343Z,22.00
2023-04-19T15:12:53.626Z,18.70
2023-04-19T15:15:23.237Z,12.90
2023-04-19T15:17:51.666Z,17.60
2023-04-19T15:20:20.664Z,15.80
2023-04-19T15:22:56.421Z,16.50
2023-04-19T15:25:36.147Z,18.00
2023-04-19T15:28:10.985Z,16.70
2023-04-19T15:30:40.819Z,13.60
2023-04-19T15:33:09.666Z,17.10
2023-04-19T15:35:39.936Z,19.50
2023-04-19T15:38:08.257Z,17.80
2023-04-19T15:40:38.741Z,10.40
2023-04-19T15:43:07.184Z,17.80
2023-04-19T15:45:36.567Z,12.40
2023-04-19T15:48:05.044Z,14.00
2023-04-19T15:50:37.059Z,13.70
2023-04-19T15:53:06.611Z,13.70
2023-04-19T15:55:36.442Z,13.80
2023-04-19T15:58:07.949Z,17.10
2023-04-19T16:00:38.690Z,14.60
2023-04-19T16:03:14.979Z,16.30
2023-04-19T16:05:43.656Z,16.80
2023-04-19T16:08:12.101Z,15.70
2023-04-19T16:10:40.463Z,14.40
2023-04-19T16:13:09.085Z,12.90
2023-04-19T16:15:37.252Z,18.50
2023-04-19T16:18:07.033Z,14.00
2023-04-19T16:20:35.557Z,19.50
2023-04-19T16:23:04.326Z,14.80
2023-04-19T16:25:35.693Z,19.10
2023-04-19T16:28:04.760Z,19.30
2023-04-19T16:30:35.593Z,15.60
2023-04-19T16:33:04.117Z,18.50
2023-04-19T16:35:49.195Z,15.50
2023-04-19T16:38:17.390Z,15.10
2023-04-19T16:40:48.810Z,12.70
2023-04-19T16:45:49.726Z,21.90
2023-04-19T16:48:24.594Z,14.80
2023-04-19T16:50:54.243Z,19.30
2023-04-19T16:53:24.955Z,16.40
2023-04-19T16:55:54.493Z,19.70
2023-04-19T16:58:24.850Z,19.80
2023-04-19T17:00:55.913Z,23.40
2023-04-19T17:03:29.225Z,23.80
2023-04-19T17:06:00.632Z,27.00
2023-04-19T17:08:33.038Z,22.80
2023-04-19T17:11:04.248Z,22.80
2023-04-19T17:13:47.958Z,27.90
2023-04-19T17:16:18.039Z,28.30
2023-04-19T17:18:57.103Z,23.00
2023-04-19T17:21:28.007Z,28.40
2023-04-19T17:23:59.486Z,23.30
2023-04-19T17:26:28.494Z,17.10
2023-04-19T17:29:01.932Z,20.70
2023-04-19T17:31:32.723Z,21.20
2023-04-19T17:34:01.801Z,22.30
2023-04-19T17:36:32.472Z,26.30
2023-04-19T17:39:19.176Z,23.20
2023-04-19T17:41:50.364Z,16.40
2023-04-19T17:44:18.608Z,18.60
2023-04-19T17:46:47.085Z,14.60
2023-04-19T17:49:19.227Z,13.50
2023-04-19T17:51:49.543Z,11.60
2023-04-19T17:54:19.150Z,14.30
2023-04-19T17:56:49.188Z,11.40
2023-04-19T17:59:17.743Z,13.20
2023-04-19T18:01:47.149Z,12.20
2023-04-19T18:04:20.267Z,10.70
2023-04-19T18:06:48.894Z,9.30
2023-04-19T18:09:20.044Z,9.60
2023-04-19T18:11:48.282Z,8.50
2023-04-19T18:14:17.167Z,9.40
2023-04-19T18:16:45.853Z,10.20
2023-04-19T18:19:19.018Z,9.20
2023-04-19T18:21:47.925Z,8.90
2023-04-19T18:24:16.182Z,8.70
2023-04-19T18:26:50.307Z,10.70
2023-04-19T18:29:21.072Z,10.40
2023-04-19T18:31:49.377Z,11.80
2023-04-19T18:34:18.016Z,11.90
2023-04-19T18:36:47.679Z,9.60
2023-04-19T18:39:17.821Z,10.10
2023-04-19T18:41:46.524Z,11.80
2023-04-19T18:44:39.011Z,8.80
2023-04-19T18:47:04.011Z,11.00
2023-04-19T18:49:32.797Z,9.60
2023-04-19T18:52:01.390Z,9.80
2023-04-19T18:54:30.177Z,14.80
2023-04-19T18:57:21.707Z,11.50
2023-04-19T18:59:48.581Z,15.50
2023-04-19T19:02:17.011Z,9.30
2023-04-19T19:04:56.098Z,9.70
2023-04-19T19:07:36.441Z,10.40
2023-04-19T19:12:43.113Z,9.20
2023-04-19T19:15:11.382Z,10.20
2023-04-19T19:17:39.760Z,15.30
2023-04-19T19:20:10.587Z,11.60
2023-04-19T19:22:39.047Z,11.80
2023-04-19T19:25:07.737Z,11.70
2023-04-19T19:27:36.379Z,15.00
2023-04-19T19:30:08.727Z,11.70
2023-04-19T19:32:37.996Z,14.00
2023-04-19T19:35:09.726Z,14.70
2023-04-19T19:37:39.505Z,12.50
2023-04-19T19:40:11.155Z,15.90
2023-04-19T19:43:02.634Z,15.40
2023-04-19T19:45:32.398Z,15.40
2023-04-19T19:48:01.242Z,11.80
2023-04-19T19:55:30.867Z,15.60
2023-04-19T20:00:45.108Z,21.10
2023-04-19T20:03:15.072Z,18.10
2023-04-19T20:05:44.393Z,15.50
2023-04-19T20:08:13.636Z,17.20
2023-04-19T20:10:42.892Z,15.80
2023-04-19T20:13:16.374Z,14.80
2023-04-19T20:15:47.496Z,22.20
2023-04-19T20:18:17.953Z,15.50
2023-04-19T20:20:46.316Z,19.20
2023-04-19T20:23:15.884Z,25.80
2023-04-19T20:25:44.265Z,20.30
2023-04-19T20:28:13.598Z,23.60
2023-04-19T20:30:42.013Z,34.20
2023-04-19T20:33:10.606Z,28.60
2023-04-19T20:35:39.283Z,25.90
2023-04-19T20:38:09.920Z,24.70
2023-04-19T20:40:38.230Z,32.70
2023-04-19T20:43:08.425Z,44.70
2023-04-19T20:45:37.152Z,25.00
2023-04-19T20:48:06.355Z,38.00
2023-04-19T20:50:35.591Z,34.90
2023-04-19T20:53:04.055Z,33.20
2023-04-19T20:55:32.440Z,28.40
2023-04-19T20:58:02.814Z,21.00
2023-04-19T21:00:31.601Z,17.50
2023-04-19T21:03:04.701Z,23.80
2023-04-19T21:05:35.454Z,20.20
2023-04-19T21:08:04.301Z,23.40
2023-04-19T21:10:32.994Z,28.00
2023-04-19T21:13:01.333Z,22.60
2023-04-19T21:15:29.692Z,19.90
2023-04-19T21:17:58.076Z,22.10
2023-04-19T21:20:26.473Z,18.00
2023-04-19T21:22:54.767Z,18.90
2023-04-19T21:25:23.157Z,28.10
2023-04-19T21:27:51.371Z,18.30
2023-04-19T21:30:20.873Z,20.60
2023-04-19T21:32:50.561Z,29.40
2023-04-19T21:35:19.858Z,23.40
2023-04-19T21:37:48.106Z,18.60
2023-04-19T21:40:16.306Z,16.50
2023-04-19T21:42:44.742Z,14.70
2023-04-19T21:45:12.977Z,19.00
2023-04-19T21:47:41.504Z,20.80
2023-04-19T21:50:10.913Z,13.60
2023-04-19T21:52:40.734Z,24.90
2023-04-19T21:55:09.237Z,19.90
2023-04-19T21:57:39.379Z,18.50
2023-04-19T22:02:45.611Z,20.10
2023-04-19T22:05:13.933Z,15.50
2023-04-19T22:07:43.188Z,19.30
2023-04-19T22:10:13.931Z,17.10
2023-04-19T22:12:55.073Z,16.30
2023-04-19T22:15:27.073Z,16.60
2023-04-19T22:17:57.653Z,16.00
2023-04-19T22:20:29.512Z,15.90
2023-04-19T22:22:57.842Z,24.00
2023-04-19T22:25:26.523Z,20.30
2023-04-19T22:27:55.406Z,20.70
2023-04-19T22:30:23.641Z,17.90
2023-04-19T22:32:52.232Z,15.40
2023-04-19T22:35:22.713Z,19.90
2023-04-19T22:37:51.454Z,18.00
2023-04-19T22:40:20.050Z,20.40
2023-04-19T22:42:48.768Z,18.40
2023-04-19T22:45:17.020Z,18.60
2023-04-19T22:47:45.724Z,23.00
2023-04-19T22:50:14.021Z,17.80
2023-04-19T22:52:42.790Z,18.30
2023-04-19T22:55:11.298Z,17.60
2023-04-19T22:57:41.287Z,18.10
2023-04-19T23:00:11.309Z,14.70
2023-04-19T23:02:40.472Z,15.80
2023-04-19T23:05:09.213Z,16.40
2023-04-19T23:07:42.196Z,20.00
2023-04-19T23:10:12.587Z,21.40
2023-04-19T23:12:41.492Z,20.80
2023-04-19T23:15:11.289Z,13.70
2023-04-19T23:17:40.011Z,14.20
2023-04-19T23:20:11.981Z,19.60
2023-04-19T23:22:40.729Z,15.40
2023-04-19T23:25:09.555Z,17.50
2023-04-19T23:27:39.304Z,20.00
2023-04-19T23:30:09.225Z,16.70
2023-04-19T23:32:38.161Z,17.00
2023-04-19T23:35:06.586Z,11.40
2023-04-19T23:37:35.525Z,16.30
2023-04-19T23:40:10.613Z,23.60
2023-04-19T23:42:39.092Z,11.10
2023-04-19T23:45:07.693Z,13.40
2023-04-19T23:47:36.925Z,19.60
2023-04-19T23:50:05.484Z,14.50
2023-04-19T23:52:35.748Z,21.50
2023-04-19T23:55:04.796Z,17.80
2023-04-19T23:57:36.258Z,19.70
